METAR Formatted Surface Weather Observation
Issued by NWS

Home | Current Version | Previous Version | Text Only | Print | Product List | Glossary On
Versions: 1 2 3 4 5 6 7 8 9 10 11
000
SAUS41 KLWX 240201 COR
MTRRSP
METAR KRSP 240154Z AUTO VRB04KT 10SM CLR 13/07 A3039 RMK AO2 SLP298
T01330067 $



USA.gov is the U.S. government's official web portal to all federal, state and local government web resources and services.